TimeEST,TemperatureF,Dew PointF,Humidity,Sea Level PressureIn,VisibilityMPH,Wind Direction,Wind SpeedMPH,Gust SpeedMPH,PrecipitationIn,Events,Conditions,WindDirDegrees,DateUTC
12:19 AM,59.0,57.2,94,30.01,8.0,North,6.9,-,0.00,,Overcast,360,2013-02-15 05:19:00
12:53 AM,57.9,55.9,93,30.02,7.0,North,10.4,-,0.01,Rain,Light Rain,350,2013-02-15 05:53:00
1:23 AM,57.2,55.4,94,30.04,6.0,North,5.8,-,0.01,Rain,Light Rain,10,2013-02-15 06:23:00
1:53 AM,57.9,55.9,93,30.05,10.0,North,4.6,-,0.01,,Overcast,360,2013-02-15 06:53:00
2:53 AM,57.0,54.0,89,30.01,9.0,NNE,5.8,-,0.00,Rain,Light Rain,20,2013-02-15 07:53:00
3:18 AM,57.2,55.4,94,30.02,9.0,North,6.9,-,0.00,,Overcast,350,2013-02-15 08:18:00
3:40 AM,57.2,55.4,94,30.02,9.0,North,6.9,-,0.00,,Overcast,360,2013-02-15 08:40:00
3:53 AM,57.0,55.0,93,30.02,9.0,North,5.8,-,0.00,,Overcast,360,2013-02-15 08:53:00
4:27 AM,57.2,53.6,88,30.03,6.0,North,6.9,-,N/A,,Overcast,10,2013-02-15 09:27:00
4:53 AM,57.0,54.0,89,30.03,10.0,NE,3.5,-,N/A,,Overcast,40,2013-02-15 09:53:00
5:53 AM,57.0,54.0,89,30.03,10.0,NNE,6.9,-,0.00,Rain,Light Rain,20,2013-02-15 10:53:00
6:53 AM,57.0,54.0,89,30.06,10.0,NE,4.6,-,0.00,,Overcast,40,2013-02-15 11:53:00
7:53 AM,55.9,53.1,90,30.06,9.0,NNE,8.1,-,N/A,,Overcast,20,2013-02-15 12:53:00
8:47 AM,55.4,51.8,88,30.09,5.0,North,9.2,-,N/A,,Overcast,10,2013-02-15 13:47:00
8:53 AM,54.0,52.0,93,30.09,5.0,North,9.2,-,N/A,,Overcast,360,2013-02-15 13:53:00
9:53 AM,54.0,52.0,93,30.10,7.0,NNE,5.8,-,N/A,,Overcast,30,2013-02-15 14:53:00
10:53 AM,55.9,51.1,84,30.10,8.0,NNE,5.8,-,N/A,,Overcast,30,2013-02-15 15:53:00
11:53 AM,57.0,52.0,83,30.08,9.0,North,5.8,-,N/A,,Overcast,10,2013-02-15 16:53:00
12:27 PM,60.8,53.6,77,30.08,10.0,Variable,3.5,-,N/A,,Overcast,0,2013-02-15 17:27:00
12:53 PM,61.0,54.0,78,30.07,10.0,Calm,Calm,-,N/A,,Mostly Cloudy,0,2013-02-15 17:53:00
1:53 PM,64.4,53.6,68,30.03,10.0,NW,5.8,-,N/A,,Scattered Clouds,310,2013-02-15 18:53:00
2:53 PM,63.0,53.1,70,30.00,10.0,SW,4.6,-,N/A,,Mostly Cloudy,220,2013-02-15 19:53:00
3:53 PM,64.0,46.9,54,30.00,10.0,WSW,4.6,-,N/A,,Mostly Cloudy,250,2013-02-15 20:53:00
4:53 PM,64.9,44.1,47,29.99,10.0,SW,4.6,-,N/A,,Mostly Cloudy,230,2013-02-15 21:53:00
5:53 PM,64.0,52.0,65,29.99,10.0,WNW,6.9,-,N/A,,Overcast,290,2013-02-15 22:53:00
6:53 PM,61.0,51.1,70,29.99,10.0,NW,6.9,-,N/A,,Scattered Clouds,320,2013-02-15 23:53:00
7:53 PM,59.0,51.1,75,30.00,10.0,Variable,5.8,-,N/A,,Mostly Cloudy,0,2013-02-16 00:53:00
8:53 PM,57.9,50.0,75,30.01,10.0,North,5.8,-,N/A,,Overcast,350,2013-02-16 01:53:00
9:53 PM,57.9,50.0,75,30.02,10.0,North,5.8,-,N/A,,Mostly Cloudy,350,2013-02-16 02:53:00
10:53 PM,57.0,50.0,77,30.01,10.0,North,5.8,-,N/A,,Partly Cloudy,360,2013-02-16 03:53:00
11:53 PM,57.0,50.0,77,30.01,10.0,North,4.6,-,N/A,,Clear,350,2013-02-16 04:53:00